createdAt,value
2019-04-25T00:00:55.563Z,66.21
2019-04-25T00:07:02.271Z,66.54
2019-04-25T00:13:08.589Z,66.70
2019-04-25T00:19:14.661Z,66.21
2019-04-25T00:25:46.756Z,65.82
2019-04-25T00:31:52.875Z,65.87
2019-04-25T00:37:59.443Z,65.92
2019-04-25T00:44:05.752Z,66.29
2019-04-25T00:50:12.009Z,67.03
2019-04-25T00:56:18.394Z,67.30
2019-04-25T01:02:47.346Z,67.66
2019-04-25T01:08:54.559Z,68.32
2019-04-25T01:15:01.647Z,68.75
2019-04-25T01:21:07.609Z,68.94
2019-04-25T01:27:13.607Z,69.25
2019-04-25T01:33:21.318Z,69.73
2019-04-25T01:39:40.564Z,69.59
2019-04-25T01:45:48.085Z,69.65
2019-04-25T01:51:54.449Z,69.98
2019-04-25T01:58:03.742Z,70.25
2019-04-25T02:04:09.887Z,70.42
2019-04-25T02:10:15.972Z,70.08
2019-04-25T02:16:23.782Z,70.17
2019-04-25T02:22:29.578Z,69.95
2019-04-25T02:28:35.698Z,69.73
2019-04-25T02:34:41.683Z,69.40
2019-04-25T02:40:47.507Z,69.06
2019-04-25T02:47:14.936Z,68.76
2019-04-25T02:53:37.392Z,68.55
2019-04-25T02:59:45.105Z,68.08
2019-04-25T03:05:51.204Z,67.80
2019-04-25T03:11:58.776Z,67.19
2019-04-25T03:18:08.819Z,66.65
2019-04-25T03:24:13.976Z,65.86
2019-04-25T03:30:20.108Z,65.06
2019-04-25T03:36:25.995Z,64.86
2019-04-25T03:42:31.978Z,64.83
2019-04-25T03:48:38.043Z,64.98
2019-04-25T03:54:43.739Z,64.86
2019-04-25T04:00:51.403Z,64.46
2019-04-25T04:06:57.166Z,64.01
2019-04-25T04:13:06.282Z,64.17
2019-04-25T04:19:13.117Z,64.01
2019-04-25T04:25:20.645Z,64.17
2019-04-25T04:31:26.653Z,63.64
2019-04-25T04:37:33.243Z,63.74
2019-04-25T04:43:39.302Z,63.53
2019-04-25T04:49:44.997Z,64.13
2019-04-25T04:55:50.699Z,62.26
2019-04-25T05:02:15.053Z,62.05
2019-04-25T05:08:25.335Z,61.23
2019-04-25T05:14:31.099Z,60.22
2019-04-25T05:20:36.819Z,59.75
2019-04-25T05:26:44.104Z,59.73
2019-04-25T05:32:49.928Z,58.75
2019-04-25T05:39:01.593Z,58.90
2019-04-25T05:45:07.959Z,57.92
2019-04-25T05:51:14.026Z,57.54
2019-04-25T05:57:19.745Z,57.39
2019-04-25T06:03:26.367Z,56.42
2019-04-25T06:09:55.084Z,56.25
2019-04-25T06:16:08.520Z,55.59
2019-04-25T06:22:19.948Z,54.90
2019-04-25T06:28:28.611Z,54.79
2019-04-25T06:34:36.435Z,53.75
2019-04-25T06:40:43.729Z,53.22
2019-04-25T06:47:01.429Z,52.22
2019-04-25T06:53:08.760Z,51.82
2019-04-25T06:59:14.593Z,51.16
2019-04-25T07:05:31.154Z,50.80
2019-04-25T07:11:30.388Z,50.70
2019-04-25T07:17:37.076Z,49.93
2019-04-25T07:23:46.007Z,49.80
2019-04-25T07:30:08.673Z,50.15
2019-04-25T07:36:15.637Z,48.89
2019-04-25T07:42:21.616Z,48.66
2019-04-25T07:48:28.053Z,48.72
2019-04-25T07:54:35.171Z,49.08
2019-04-25T08:00:41.513Z,48.04
2019-04-25T08:06:47.292Z,48.09
2019-04-25T08:12:53.672Z,47.60
2019-04-25T08:19:00.681Z,47.51
2019-04-25T08:25:07.909Z,46.99
2019-04-25T08:31:13.992Z,47.34
2019-04-25T08:37:21.157Z,47.66
2019-04-25T08:43:27.153Z,46.59
2019-04-25T08:49:46.209Z,46.77
2019-04-25T08:56:03.877Z,47.02
2019-04-25T09:02:27.546Z,46.82
2019-04-25T09:08:35.972Z,46.14
2019-04-25T09:14:44.697Z,46.04
2019-04-25T09:20:49.945Z,46.20
2019-04-25T09:26:56.344Z,46.01
2019-04-25T09:33:03.093Z,45.27
2019-04-25T09:39:27.398Z,44.77
2019-04-25T09:45:53.292Z,44.52
2019-04-25T09:52:03.520Z,43.86
2019-04-25T09:58:18.965Z,43.21
2019-04-25T10:04:24.909Z,42.78
2019-04-25T10:10:32.797Z,42.18
2019-04-25T10:16:39.018Z,41.87
2019-04-25T10:22:45.665Z,41.34
2019-04-25T10:28:52.539Z,41.31
2019-04-25T10:34:58.350Z,41.72
2019-04-25T10:41:04.331Z,42.22
2019-04-25T10:47:10.149Z,42.55
2019-04-25T10:53:17.080Z,42.35
2019-04-25T10:59:23.636Z,42.66
2019-04-25T11:05:30.170Z,42.36
2019-04-25T11:11:37.615Z,41.86
2019-04-25T11:17:45.781Z,40.91
2019-04-25T11:23:51.554Z,40.18
2019-04-25T11:30:08.404Z,39.93
2019-04-25T11:36:05.527Z,39.32
2019-04-25T11:42:33.894Z,38.48
2019-04-25T11:48:39.801Z,38.98
2019-04-25T11:54:46.869Z,39.25
2019-04-25T12:00:57.632Z,37.12
2019-04-25T12:07:03.837Z,36.66
2019-04-25T12:13:09.211Z,36.25
2019-04-25T12:19:15.355Z,36.17
2019-04-25T12:25:21.575Z,35.85
2019-04-25T12:31:27.691Z,35.19
2019-04-25T12:37:33.769Z,35.63
2019-04-25T12:43:43.893Z,34.45
2019-04-25T12:49:50.643Z,34.00
2019-04-25T12:55:58.421Z,34.09
2019-04-25T13:02:04.997Z,32.87
2019-04-25T13:08:10.833Z,33.52
2019-04-25T13:14:17.515Z,33.21
2019-04-25T13:20:24.046Z,33.15
2019-04-25T13:26:34.092Z,33.26
2019-04-25T13:33:01.978Z,33.33
2019-04-25T13:39:16.893Z,33.80
2019-04-25T13:45:23.318Z,32.74
2019-04-25T13:51:29.663Z,31.74
2019-04-25T13:57:35.879Z,31.92
2019-04-25T14:03:42.292Z,32.07
2019-04-25T14:09:48.519Z,32.23
2019-04-25T14:16:04.840Z,32.62
2019-04-25T14:22:10.999Z,32.86
2019-04-25T14:28:17.050Z,32.13
2019-04-25T14:34:25.050Z,32.15
2019-04-25T14:40:31.457Z,32.43
2019-04-25T14:46:37.890Z,32.33
2019-04-25T14:52:43.875Z,32.52
2019-04-25T14:58:50.036Z,33.00
2019-04-25T15:04:56.223Z,33.19
2019-04-25T15:11:02.566Z,33.70
2019-04-25T15:17:09.888Z,33.76
2019-04-25T15:23:15.950Z,34.30
2019-04-25T15:29:21.769Z,34.66
2019-04-25T15:36:01.355Z,34.74
2019-04-25T15:42:27.378Z,34.57
2019-04-25T15:48:33.916Z,34.65
2019-04-25T15:54:39.802Z,34.67
2019-04-25T16:00:46.169Z,34.61
2019-04-25T16:06:52.621Z,34.67
2019-04-25T16:12:58.436Z,35.11
2019-04-25T16:19:05.827Z,34.93
2019-04-25T16:25:11.733Z,35.30
2019-04-25T16:31:20.598Z,35.39
2019-04-25T16:37:27.947Z,36.12
2019-04-25T16:43:38.997Z,37.61
2019-04-25T16:49:45.811Z,38.94
2019-04-25T16:55:51.728Z,39.51
2019-04-25T17:01:59.252Z,40.87
2019-04-25T17:08:05.897Z,41.67
2019-04-25T17:14:27.011Z,41.91
2019-04-25T17:20:39.713Z,42.02
2019-04-25T17:26:46.356Z,42.19
2019-04-25T17:33:05.192Z,42.39
2019-04-25T17:39:28.717Z,42.59
2019-04-25T17:45:34.833Z,42.52
2019-04-25T17:51:40.821Z,41.04
2019-04-25T17:57:46.946Z,41.00
2019-04-25T18:03:53.778Z,41.55
2019-04-25T18:09:59.581Z,42.61
2019-04-25T18:16:17.371Z,43.47
2019-04-25T18:22:44.803Z,43.88
2019-04-25T18:28:53.088Z,43.93
2019-04-25T18:35:07.512Z,44.16
2019-04-25T18:41:36.336Z,44.32
2019-04-25T18:47:42.502Z,44.46
2019-04-25T18:54:04.666Z,45.26
2019-04-25T19:00:42.190Z,46.90
2019-04-25T19:06:55.291Z,47.87
2019-04-25T19:12:56.075Z,49.33
2019-04-25T19:19:03.851Z,51.76
2019-04-25T19:25:10.407Z,53.71
2019-04-25T19:31:16.285Z,56.54
2019-04-25T19:37:22.540Z,57.74
2019-04-25T19:43:47.322Z,56.99
2019-04-25T19:49:53.200Z,59.32
2019-04-25T19:55:58.984Z,60.96
2019-04-25T20:02:09.850Z,62.70
2019-04-25T20:08:37.537Z,62.29
2019-04-25T20:14:44.562Z,62.28
2019-04-25T20:20:52.220Z,62.23
2019-04-25T20:26:58.314Z,62.68
2019-04-25T20:33:04.188Z,63.35
2019-04-25T20:39:10.542Z,63.56
2019-04-25T20:45:17.538Z,63.47
2019-04-25T20:51:23.364Z,63.77
2019-04-25T20:57:29.166Z,64.46
2019-04-25T21:03:35.470Z,63.90
2019-04-25T21:09:41.855Z,63.42
2019-04-25T21:16:06.421Z,63.96
2019-04-25T21:22:14.029Z,64.32
2019-04-25T21:28:22.588Z,64.38
2019-04-25T21:34:31.784Z,64.40
2019-04-25T21:40:54.741Z,64.98
2019-04-25T21:47:01.897Z,64.37
2019-04-25T21:53:08.283Z,64.68
2019-04-25T21:59:14.477Z,64.68
2019-04-25T22:05:20.491Z,64.70
2019-04-25T22:11:26.656Z,64.89
2019-04-25T22:17:33.833Z,65.02
2019-04-25T22:23:40.075Z,64.80
2019-04-25T22:29:47.801Z,64.90
2019-04-25T22:36:06.084Z,65.39
2019-04-25T22:42:31.087Z,66.06
2019-04-25T22:48:49.413Z,65.55
2019-04-25T22:54:55.271Z,66.47
2019-04-25T23:01:03.137Z,67.08
2019-04-25T23:07:10.068Z,66.96
2019-04-25T23:13:15.924Z,67.27
2019-04-25T23:19:21.837Z,68.75
2019-04-25T23:25:33.128Z,69.35
2019-04-25T23:31:39.685Z,69.62
2019-04-25T23:37:46.291Z,69.76
2019-04-25T23:43:52.173Z,68.52
2019-04-25T23:49:58.273Z,67.89
2019-04-25T23:56:04.059Z,67.71
